createdAt,value
2022-12-25T00:01:37.187Z,481.42
2022-12-25T00:04:06.019Z,437.10
2022-12-25T00:06:34.797Z,448.90
2022-12-25T00:09:03.349Z,433.40
2022-12-25T00:11:31.880Z,427.88
2022-12-25T00:14:01.941Z,473.50
2022-12-25T00:16:30.744Z,458.00
2022-12-25T00:19:00.964Z,436.10
2022-12-25T00:21:30.082Z,449.13
2022-12-25T00:24:00.237Z,424.40
2022-12-25T00:26:29.817Z,419.45
2022-12-25T00:29:00.476Z,432.92
2022-12-25T00:31:29.237Z,447.13
2022-12-25T00:33:57.886Z,443.13
2022-12-25T00:36:26.778Z,451.50
2022-12-25T00:38:55.405Z,440.52
2022-12-25T00:41:54.363Z,439.90
2022-12-25T00:44:24.678Z,434.15
2022-12-25T00:46:56.701Z,452.13
2022-12-25T00:49:25.539Z,453.73
2022-12-25T00:51:54.377Z,427.10
2022-12-25T00:54:23.396Z,430.27
2022-12-25T00:56:52.531Z,447.05
2022-12-25T00:59:25.472Z,458.75
2022-12-25T01:01:54.535Z,451.52
2022-12-25T01:04:23.233Z,442.13
2022-12-25T01:06:51.853Z,439.00
2022-12-25T01:09:49.057Z,428.50
2022-12-25T01:12:17.588Z,440.83
2022-12-25T01:14:47.708Z,445.13
2022-12-25T01:17:16.378Z,446.27
2022-12-25T01:19:44.936Z,442.75
2022-12-25T01:22:13.461Z,449.70
2022-12-25T01:24:42.007Z,440.80
2022-12-25T01:27:10.437Z,423.73
2022-12-25T01:29:39.615Z,421.38
2022-12-25T01:32:10.039Z,433.05
2022-12-25T01:34:38.739Z,454.58
2022-12-25T01:37:07.472Z,426.95
2022-12-25T01:39:36.271Z,435.65
2022-12-25T01:42:05.002Z,431.83
2022-12-25T01:45:18.226Z,443.13
2022-12-25T01:47:48.239Z,433.75
2022-12-25T01:50:16.932Z,429.42
2022-12-25T01:52:45.761Z,444.23
2022-12-25T01:55:14.676Z,430.73
2022-12-25T01:57:43.374Z,429.90
2022-12-25T02:00:13.901Z,431.92
2022-12-25T02:02:43.456Z,449.65
2022-12-25T02:05:17.945Z,433.42
2022-12-25T02:07:47.869Z,426.45
2022-12-25T02:10:16.728Z,439.70
2022-12-25T02:12:46.406Z,458.65
2022-12-25T02:15:17.909Z,457.10
2022-12-25T02:17:52.552Z,447.38
2022-12-25T02:20:41.744Z,419.90
2022-12-25T02:23:37.292Z,430.35
2022-12-25T02:26:19.794Z,451.40
2022-12-25T02:28:54.722Z,440.17
2022-12-25T02:31:31.012Z,453.88
2022-12-25T02:34:04.916Z,454.65
2022-12-25T02:36:38.723Z,445.13
2022-12-25T02:39:29.166Z,459.52
2022-12-25T02:42:01.134Z,450.75
2022-12-25T02:44:49.302Z,419.98
2022-12-25T02:47:35.780Z,429.83
2022-12-25T02:50:23.454Z,445.35
2022-12-25T02:53:11.487Z,452.48
2022-12-25T02:55:59.386Z,426.38
2022-12-25T02:58:46.059Z,429.65
2022-12-25T03:01:36.340Z,426.15
2022-12-25T03:04:24.774Z,452.75
2022-12-25T03:07:05.883Z,453.75
2022-12-25T03:09:56.476Z,438.95
2022-12-25T03:12:32.475Z,440.60
2022-12-25T03:15:18.540Z,437.17
2022-12-25T03:17:48.818Z,442.35
2022-12-25T03:20:35.044Z,449.98
2022-12-25T03:23:21.736Z,436.80
2022-12-25T03:26:07.650Z,445.55
2022-12-25T03:28:36.105Z,437.65
2022-12-25T03:31:11.698Z,439.45
2022-12-25T03:34:11.023Z,446.02
2022-12-25T03:36:48.789Z,438.58
2022-12-25T03:39:41.069Z,447.38
2022-12-25T03:42:27.605Z,439.33
2022-12-25T03:45:20.675Z,434.15
2022-12-25T03:48:07.762Z,448.52
2022-12-25T03:50:57.973Z,441.90
2022-12-25T03:53:46.421Z,459.90
2022-12-25T03:56:33.788Z,439.75
2022-12-25T03:59:23.906Z,452.08
2022-12-25T04:05:20.789Z,454.33
2022-12-25T04:08:07.967Z,452.17
2022-12-25T04:10:54.075Z,440.13
2022-12-25T04:13:40.173Z,442.50
2022-12-25T04:16:26.464Z,456.27
2022-12-25T04:19:12.484Z,434.15
2022-12-25T04:21:58.556Z,432.75
2022-12-25T04:24:45.964Z,424.63
2022-12-25T04:27:37.226Z,447.23
2022-12-25T04:30:23.838Z,444.80
2022-12-25T04:33:10.011Z,424.95
2022-12-25T04:35:55.992Z,440.95
2022-12-25T04:38:24.923Z,427.45
2022-12-25T04:40:55.202Z,441.23
2022-12-25T04:43:25.367Z,432.48
2022-12-25T04:45:54.990Z,440.90
2022-12-25T04:48:23.421Z,441.42
2022-12-25T04:50:51.960Z,453.10
2022-12-25T04:53:20.797Z,433.17
2022-12-25T04:55:49.375Z,452.98
2022-12-25T04:58:19.678Z,434.73
2022-12-25T05:00:48.392Z,443.50
2022-12-25T05:03:16.916Z,446.65
2022-12-25T05:05:45.613Z,420.50
2022-12-25T05:08:14.228Z,432.35
2022-12-25T05:10:43.195Z,441.05
2022-12-25T05:13:11.657Z,449.33
2022-12-25T05:15:43.084Z,443.60
2022-12-25T05:18:11.652Z,464.77
2022-12-25T05:20:40.632Z,447.15
2022-12-25T05:23:10.346Z,442.42
2022-12-25T05:25:40.811Z,438.35
2022-12-25T05:28:09.284Z,432.58
2022-12-25T05:30:37.961Z,429.20
2022-12-25T05:33:07.879Z,464.77
2022-12-25T05:35:39.070Z,459.85
2022-12-25T05:38:07.968Z,440.52
2022-12-25T05:40:39.368Z,450.67
2022-12-25T05:43:07.845Z,454.15
2022-12-25T05:45:36.377Z,434.13
2022-12-25T05:48:05.002Z,437.98
2022-12-25T05:50:34.979Z,439.25
2022-12-25T05:53:08.230Z,463.73
2022-12-25T05:55:37.699Z,439.20
2022-12-25T05:58:06.811Z,466.55
2022-12-25T06:00:35.877Z,469.10
2022-12-25T06:03:04.815Z,451.90
2022-12-25T06:05:34.823Z,435.10
2022-12-25T06:08:03.306Z,433.20
2022-12-25T06:10:31.879Z,462.88
2022-12-25T06:13:00.812Z,448.17
2022-12-25T06:15:29.559Z,459.73
2022-12-25T06:17:58.055Z,460.55
2022-12-25T06:20:26.701Z,457.73
2022-12-25T06:22:56.764Z,445.85
2022-12-25T06:25:25.415Z,450.30
2022-12-25T06:27:54.078Z,431.88
2022-12-25T06:30:22.648Z,444.05
2022-12-25T06:32:51.418Z,464.40
2022-12-25T06:35:20.050Z,431.92
2022-12-25T06:37:48.862Z,451.52
2022-12-25T06:40:19.126Z,443.83
2022-12-25T06:42:47.711Z,465.50
2022-12-25T06:45:16.246Z,453.98
2022-12-25T06:47:46.535Z,459.38
2022-12-25T06:50:15.254Z,459.92
2022-12-25T06:52:43.743Z,450.73
2022-12-25T06:55:12.468Z,445.48
2022-12-25T06:57:42.536Z,434.27
2022-12-25T07:00:17.812Z,455.17
2022-12-25T07:02:59.316Z,549.08
2022-12-25T07:05:28.077Z,459.98
2022-12-25T07:07:57.036Z,458.23
2022-12-25T07:10:25.541Z,442.00
2022-12-25T07:13:30.206Z,464.90
2022-12-25T07:22:06.535Z,451.38
2022-12-25T07:24:50.199Z,500.60
2022-12-25T07:27:19.218Z,450.35
2022-12-25T07:29:52.947Z,448.27
2022-12-25T07:32:21.681Z,460.23
2022-12-25T07:34:52.995Z,467.95
2022-12-25T07:37:25.621Z,453.92
2022-12-25T07:39:54.612Z,451.75
2022-12-25T07:42:29.342Z,449.88
2022-12-25T07:45:00.512Z,453.15
2022-12-25T07:50:28.925Z,445.83
2022-12-25T07:52:59.679Z,458.65
2022-12-25T07:55:28.679Z,463.60
2022-12-25T07:58:08.917Z,457.95
2022-12-25T08:00:39.335Z,443.23
2022-12-25T08:03:08.959Z,447.70
2022-12-25T08:05:40.425Z,442.55
2022-12-25T08:08:10.671Z,511.77
2022-12-25T08:10:39.374Z,438.73
2022-12-25T08:13:14.410Z,486.67
2022-12-25T08:15:44.821Z,451.45
2022-12-25T08:18:13.865Z,443.30
2022-12-25T08:20:42.657Z,466.77
2022-12-25T08:23:11.818Z,458.77
2022-12-25T08:25:43.975Z,480.17
2022-12-25T08:28:14.983Z,445.80
2022-12-25T08:30:45.482Z,460.05
2022-12-25T08:33:15.212Z,458.42
2022-12-25T08:35:43.953Z,441.75
2022-12-25T08:38:13.395Z,443.25
2022-12-25T08:40:52.673Z,462.08
2022-12-25T08:43:21.680Z,454.38
2022-12-25T08:45:57.033Z,464.40
2022-12-25T08:48:26.805Z,450.98
2022-12-25T08:51:11.395Z,452.55
2022-12-25T08:53:41.114Z,442.17
2022-12-25T08:56:30.024Z,442.42
2022-12-25T08:59:00.423Z,458.88
2022-12-25T09:01:31.006Z,445.95
2022-12-25T09:04:07.710Z,447.63
2022-12-25T10:26:55.122Z,469.20
2022-12-25T10:29:29.924Z,485.10
2022-12-25T10:32:03.696Z,567.15
2022-12-25T10:34:36.618Z,498.45
2022-12-25T10:37:11.913Z,495.98
2022-12-25T10:39:57.793Z,457.50
2022-12-25T10:45:26.279Z,446.98
2022-12-25T11:05:25.728Z,393.55
2022-12-25T11:07:55.552Z,410.45
2022-12-25T11:10:27.148Z,444.45
2022-12-25T11:12:58.078Z,475.65
2022-12-25T11:40:37.466Z,634.03
2022-12-25T11:43:14.455Z,452.88
2022-12-25T11:45:59.905Z,453.40
2022-12-25T11:48:33.112Z,460.88
2022-12-25T11:51:03.783Z,553.65
2022-12-25T11:53:41.316Z,479.60
2022-12-25T11:56:14.423Z,506.30
2022-12-25T11:58:45.429Z,464.63
2022-12-25T12:01:20.072Z,553.78
2022-12-25T12:03:49.127Z,484.90
2022-12-25T12:06:30.865Z,433.10
2022-12-25T12:09:08.128Z,442.05
2022-12-25T12:14:57.341Z,486.05
2022-12-25T12:17:27.544Z,452.73
2022-12-25T12:19:56.633Z,468.40
2022-12-25T12:22:27.642Z,403.15
2022-12-25T12:25:03.947Z,417.27
2022-12-25T12:27:37.346Z,407.15
2022-12-25T12:33:22.701Z,383.35
2022-12-25T12:35:51.943Z,494.75
2022-12-25T12:38:22.652Z,505.83
2022-12-25T12:44:12.226Z,465.48
2022-12-25T12:46:52.536Z,454.55
2022-12-25T12:52:09.257Z,485.30
2022-12-25T12:54:59.588Z,406.65
2022-12-25T12:57:32.917Z,374.05
2022-12-25T13:00:10.802Z,473.38
2022-12-25T13:03:19.289Z,434.02
2022-12-25T13:05:52.453Z,371.83
2022-12-25T13:08:33.439Z,385.60
2022-12-25T13:11:08.753Z,436.77
2022-12-25T13:13:40.453Z,459.15
2022-12-25T13:16:18.148Z,397.75
2022-12-25T13:18:46.991Z,450.75
2022-12-25T13:21:19.890Z,495.92
2022-12-25T13:23:49.078Z,457.65
2022-12-25T13:26:20.961Z,465.85
2022-12-25T13:28:49.980Z,475.30
2022-12-25T13:31:22.724Z,484.83
2022-12-25T13:33:57.299Z,492.42
2022-12-25T13:36:26.566Z,477.65
2022-12-25T13:38:58.007Z,465.60
2022-12-25T13:41:52.470Z,507.85
2022-12-25T13:44:22.983Z,435.23
2022-12-25T13:47:04.402Z,487.77
2022-12-25T13:49:38.508Z,496.58
2022-12-25T13:52:21.737Z,440.40
2022-12-25T13:55:03.829Z,493.55
2022-12-25T13:57:39.337Z,506.90
2022-12-25T14:00:28.061Z,506.48
2022-12-25T14:03:00.495Z,445.90
2022-12-25T14:06:16.896Z,447.80
2022-12-25T14:08:49.770Z,454.42
2022-12-25T14:11:38.146Z,468.88
2022-12-25T14:19:28.808Z,473.17
2022-12-25T14:34:01.051Z,467.80
2022-12-25T14:36:35.924Z,493.90
2022-12-25T14:39:07.287Z,603.28
2022-12-25T14:41:42.001Z,563.85
2022-12-25T14:44:41.465Z,516.88
2022-12-25T14:47:28.693Z,532.85
2022-12-25T14:49:58.197Z,473.70
2022-12-25T14:52:29.986Z,464.38
2022-12-25T14:55:05.900Z,450.92
2022-12-25T14:57:40.837Z,457.17
2022-12-25T15:00:21.835Z,439.67
2022-12-25T15:02:51.328Z,442.73
2022-12-25T15:05:35.937Z,461.20
2022-12-25T15:08:31.734Z,420.40
2022-12-25T15:11:04.447Z,420.38
2022-12-25T15:13:34.296Z,532.40
2022-12-25T15:16:07.848Z,409.17
2022-12-25T15:18:38.642Z,440.40
2022-12-25T15:21:07.952Z,588.35
2022-12-25T15:23:39.147Z,487.73
2022-12-25T15:26:07.676Z,437.42
2022-12-25T15:28:36.295Z,446.55
2022-12-25T15:31:05.592Z,487.42
2022-12-25T15:33:36.975Z,432.15
2022-12-25T15:36:12.149Z,502.60
2022-12-25T15:38:42.721Z,405.90
2022-12-25T15:41:35.758Z,449.15
2022-12-25T15:44:07.845Z,481.42
2022-12-25T15:46:36.964Z,390.17
2022-12-25T15:49:05.969Z,424.52
2022-12-25T15:51:34.595Z,402.75
2022-12-25T15:54:05.071Z,457.35
2022-12-25T15:56:38.466Z,404.58
2022-12-25T15:59:07.234Z,535.50
2022-12-25T16:01:35.973Z,406.15
2022-12-25T16:04:08.472Z,403.98
2022-12-25T16:06:38.810Z,397.83
2022-12-25T16:09:10.936Z,421.38
2022-12-25T16:11:39.763Z,396.92
2022-12-25T16:14:12.158Z,386.35
2022-12-25T16:16:41.979Z,406.23
2022-12-25T16:19:10.994Z,449.63
2022-12-25T16:21:41.987Z,406.45
2022-12-25T16:24:12.249Z,437.42
2022-12-25T16:26:41.220Z,419.83
2022-12-25T16:29:10.748Z,412.92
2022-12-25T16:31:40.216Z,399.17
2022-12-25T16:34:09.763Z,419.77
2022-12-25T16:36:39.066Z,428.75
2022-12-25T16:39:13.107Z,581.15
2022-12-25T16:41:41.672Z,424.77
2022-12-25T16:44:11.240Z,435.63
2022-12-25T16:46:42.083Z,395.90
2022-12-25T16:49:11.411Z,468.75
2022-12-25T16:51:40.604Z,441.85
2022-12-25T16:54:09.469Z,422.83
2022-12-25T16:56:40.900Z,422.10
2022-12-25T17:02:17.780Z,551.67
2022-12-25T17:04:47.059Z,467.60
2022-12-25T17:07:16.544Z,475.80
2022-12-25T17:09:48.162Z,440.88
2022-12-25T17:12:18.528Z,403.60
2022-12-25T17:14:47.347Z,439.10
2022-12-25T17:17:15.982Z,416.75
2022-12-25T17:19:44.607Z,418.45
2022-12-25T17:22:13.246Z,540.35
2022-12-25T17:24:42.929Z,417.63
2022-12-25T17:27:23.662Z,430.48
2022-12-25T17:29:52.928Z,417.70
2022-12-25T17:32:21.921Z,404.25
2022-12-25T17:51:06.772Z,355.05
2022-12-25T18:05:25.249Z,359.83
2022-12-25T18:08:01.212Z,365.95
2022-12-25T18:10:44.556Z,371.73
2022-12-25T18:17:11.088Z,354.08
2022-12-25T18:19:43.160Z,337.35
2022-12-25T18:22:50.497Z,397.98
2022-12-25T18:25:24.306Z,480.88
2022-12-25T18:28:10.929Z,346.77
2022-12-25T18:31:32.083Z,351.10
2022-12-25T18:34:01.295Z,343.27
2022-12-25T18:37:02.732Z,399.63
2022-12-25T19:01:26.098Z,312.38
2022-12-25T19:04:06.051Z,305.80
2022-12-25T19:06:49.355Z,318.70
2022-12-25T19:12:02.912Z,324.70
2022-12-25T19:14:47.447Z,315.95
2022-12-25T19:17:20.131Z,335.35
2022-12-25T19:19:56.616Z,326.98
2022-12-25T19:22:28.252Z,333.70
2022-12-25T19:25:04.816Z,371.00
2022-12-25T19:36:28.445Z,316.08
2022-12-25T19:38:58.516Z,333.33
2022-12-25T19:42:30.000Z,372.83
2022-12-25T19:45:32.611Z,369.30
2022-12-25T19:48:01.430Z,385.02
2022-12-25T19:50:35.891Z,480.45
2022-12-25T19:55:38.932Z,320.33
2022-12-25T19:58:07.932Z,411.05
2022-12-25T20:00:37.104Z,317.75
2022-12-25T21:53:05.568Z,315.08
2022-12-25T21:55:37.805Z,346.80
2022-12-25T21:58:06.792Z,332.65
2022-12-25T22:00:41.633Z,313.02
2022-12-25T22:03:10.648Z,300.98
2022-12-25T22:05:57.039Z,301.20
2022-12-25T22:08:31.446Z,307.63
2022-12-25T22:11:00.475Z,395.25
2022-12-25T22:13:46.507Z,322.38
2022-12-25T22:16:32.391Z,276.83
2022-12-25T22:19:18.423Z,296.17
2022-12-25T22:21:52.108Z,284.77
2022-12-25T22:24:25.846Z,285.20
2022-12-25T22:26:55.257Z,291.65
2022-12-25T22:29:50.502Z,304.85
2022-12-25T22:34:53.001Z,294.63
2022-12-25T22:37:22.090Z,274.30
2022-12-25T22:40:02.939Z,286.42
2022-12-25T22:42:31.811Z,283.77
2022-12-25T22:45:00.917Z,283.95
2022-12-25T22:47:36.317Z,283.58
2022-12-25T22:50:14.799Z,283.08
2022-12-25T22:52:56.890Z,296.98
2022-12-25T22:55:30.845Z,381.65
2022-12-25T22:58:22.085Z,274.50
2022-12-25T23:06:09.122Z,280.98
2022-12-25T23:08:38.133Z,261.52
2022-12-25T23:11:08.871Z,268.85
2022-12-25T23:13:57.493Z,282.27
2022-12-25T23:16:26.637Z,284.02
2022-12-25T23:19:12.501Z,273.55
2022-12-25T23:21:59.392Z,290.63
2022-12-25T23:24:45.201Z,270.17
2022-12-25T23:27:15.489Z,269.65
2022-12-25T23:29:44.358Z,327.63
2022-12-25T23:32:14.651Z,284.60
2022-12-25T23:34:45.012Z,306.23
2022-12-25T23:37:13.792Z,290.42
2022-12-25T23:39:42.635Z,365.02
2022-12-25T23:42:11.271Z,280.73
2022-12-25T23:44:41.288Z,285.13
2022-12-25T23:47:09.940Z,282.15
2022-12-25T23:49:48.295Z,289.67
2022-12-25T23:52:16.854Z,279.98
2022-12-25T23:54:45.341Z,293.88
2022-12-25T23:57:13.992Z,280.50
2022-12-25T23:59:44.368Z,283.10
